Time;durP1;ratioP1;P1;durP2;ratioP2;P2;SDS_P1;SDS_P2;PMS_P1;PMS_P2;Temp;Humidity;BMP_temperature;BMP_pressure;BME280_temperature;BME280_humidity;BME280_pressure;Samples;Min_cycle;Max_cycle;Signal;HPM_P1;HPM_P2
2021/12/31 00:01:40;;;;;;;;;145.75;136.50;9.80;79.70;;;;;;5015805;28;8884;-64
2021/12/31 00:04:06;;;;;;;;;136.50;129.75;9.90;79.00;;;;;;5015624;28;8778;-64
2021/12/31 00:06:32;;;;;;;;;132.25;128.75;10.00;77.90;;;;;;5015938;28;8766;-64
2021/12/31 00:08:58;;;;;;;;;130.50;121.25;10.10;77.70;;;;;;5015535;28;9513;-68
2021/12/31 00:11:24;;;;;;;;;116.75;112.50;10.10;77.20;;;;;;5015940;28;8758;-66
2021/12/31 00:13:50;;;;;;;;;121.50;115.50;9.80;79.30;;;;;;5015642;28;8766;-64
2021/12/31 00:16:15;;;;;;;;;97.50;93.00;9.70;80.70;;;;;;5015048;28;8813;-65
2021/12/31 00:18:41;;;;;;;;;96.75;94.25;9.60;81.40;;;;;;5014610;28;8809;-64
2021/12/31 00:21:07;;;;;;;;;89.00;82.50;9.60;81.50;;;;;;5015576;28;8788;-64
2021/12/31 00:23:33;;;;;;;;;105.00;95.00;9.90;79.70;;;;;;5015310;28;8782;-63
2021/12/31 00:25:59;;;;;;;;;100.00;95.25;10.20;77.20;;;;;;5014487;28;8860;-63
2021/12/31 00:28:24;;;;;;;;;100.00;97.25;10.10;78.00;;;;;;5015432;28;8762;-64
2021/12/31 00:30:55;;;;;;;;;110.00;104.50;10.00;78.60;;;;;;5015576;28;8794;-63
2021/12/31 00:33:22;;;;;;;;;95.75;92.00;10.00;78.10;;;;;;5015368;28;8789;-64
2021/12/31 00:35:48;;;;;;;;;97.00;92.00;10.10;78.20;;;;;;5015392;28;8809;-65
2021/12/31 00:38:14;;;;;;;;;98.25;89.50;10.20;77.00;;;;;;5015247;28;8750;-64
2021/12/31 00:40:40;;;;;;;;;93.00;81.75;10.30;76.80;;;;;;5015167;28;8774;-66
2021/12/31 00:43:11;;;;;;;;;91.25;75.50;10.20;77.10;;;;;;5015326;28;8769;-63
2021/12/31 00:45:39;;;;;;;;;80.25;67.50;10.20;77.30;;;;;;5015454;28;8758;-64
2021/12/31 00:48:06;;;;;;;;;86.75;70.00;10.00;79.20;;;;;;5015468;28;8798;-66
2021/12/31 00:50:31;;;;;;;;;88.50;69.50;10.10;78.70;;;;;;5015098;28;8782;-65
2021/12/31 00:52:57;;;;;;;;;85.00;69.00;10.20;78.40;;;;;;5015294;28;8897;-63
2021/12/31 00:55:23;;;;;;;;;82.25;61.25;10.20;77.60;;;;;;5014946;28;8857;-64
2021/12/31 00:57:49;;;;;;;;;79.50;64.25;10.10;78.20;;;;;;5015182;28;8864;-63
2021/12/31 01:00:16;;;;;;;;;83.00;64.00;9.80;80.10;;;;;;5014942;28;8835;-64
2021/12/31 01:02:45;;;;;;;;;82.25;68.00;10.00;79.80;;;;;;5014864;28;8754;-65
2021/12/31 01:05:12;;;;;;;;;82.50;64.25;10.20;78.50;;;;;;5015132;28;8757;-63
2021/12/31 01:07:39;;;;;;;;;71.25;59.00;10.10;80.00;;;;;;5015092;28;8778;-64
2021/12/31 01:10:07;;;;;;;;;74.50;61.00;10.00;79.80;;;;;;5014948;28;9443;-64
2021/12/31 01:12:33;;;;;;;;;73.00;60.00;10.00;78.80;;;;;;5014473;28;8774;-64
2021/12/31 01:15:03;;;;;;;;;74.50;61.25;10.00;79.30;;;;;;5014621;28;8806;-64
2021/12/31 01:18:13;;;;;;;;;79.75;67.50;10.20;77.90;;;;;;5014850;28;8857;-64
2021/12/31 01:20:33;;;;;;;;;70.75;59.50;10.20;77.10;;;;;;5014706;28;8848;-64
2021/12/31 01:22:59;;;;;;;;;72.75;58.50;9.90;80.10;;;;;;5014815;28;8754;-64
2021/12/31 01:25:25;;;;;;;;;80.25;65.25;10.10;79.10;;;;;;5014605;28;8865;-64
2021/12/31 01:27:51;;;;;;;;;79.25;63.75;9.90;79.80;;;;;;5014559;28;8786;-65
2021/12/31 01:30:17;;;;;;;;;87.00;74.50;10.00;79.40;;;;;;5014790;28;8754;-64
2021/12/31 01:32:43;;;;;;;;;89.00;71.25;9.90;79.30;;;;;;5014321;28;8755;-65
2021/12/31 01:35:10;;;;;;;;;86.25;77.00;9.80;80.10;;;;;;5014446;28;8786;-65
2021/12/31 01:37:35;;;;;;;;;86.25;73.75;10.00;78.90;;;;;;5014487;28;8872;-65
2021/12/31 01:40:02;;;;;;;;;84.50;72.75;9.90;79.20;;;;;;5014442;28;8928;-65
2021/12/31 01:42:32;;;;;;;;;89.00;76.75;10.00;79.20;;;;;;5014299;28;8762;-64
2021/12/31 01:45:04;;;;;;;;;88.50;76.75;9.70;81.60;;;;;;5014259;28;8781;-64
2021/12/31 01:47:35;;;;;;;;;90.25;79.25;9.90;79.60;;;;;;5014543;28;8818;-64
2021/12/31 01:50:07;;;;;;;;;87.75;71.75;10.10;78.80;;;;;;5014405;28;8782;-64
2021/12/31 01:52:34;;;;;;;;;84.25;70.75;10.40;76.80;;;;;;5014348;28;8786;-64
2021/12/31 01:55:02;;;;;;;;;79.75;66.75;10.20;76.80;;;;;;5013612;28;8798;-64
2021/12/31 01:57:29;;;;;;;;;75.00;61.75;10.20;77.50;;;;;;5014540;28;9430;-64
2021/12/31 01:59:55;;;;;;;;;84.00;66.50;10.20;77.50;;;;;;5014558;28;9531;-63
2021/12/31 02:02:21;;;;;;;;;88.50;76.00;10.10;77.80;;;;;;5014241;28;8955;-66
2021/12/31 02:04:47;;;;;;;;;83.25;71.00;10.30;77.00;;;;;;5014235;28;8762;-64
2021/12/31 02:07:13;;;;;;;;;80.50;65.25;10.20;77.10;;;;;;5014414;28;8811;-65
2021/12/31 02:09:45;;;;;;;;;81.25;71.25;10.60;75.60;;;;;;5014184;28;9522;-64
2021/12/31 02:12:11;;;;;;;;;82.50;71.75;10.50;75.50;;;;;;5014082;28;8785;-64
2021/12/31 02:14:37;;;;;;;;;81.50;69.25;10.70;74.40;;;;;;5014223;28;8794;-64
2021/12/31 02:17:09;;;;;;;;;88.00;74.00;10.70;74.10;;;;;;5014332;28;8786;-65
2021/12/31 02:19:35;;;;;;;;;86.25;71.50;10.80;73.70;;;;;;5014347;28;8912;-65
2021/12/31 02:22:01;;;;;;;;;91.00;79.50;10.80;73.70;;;;;;5014034;28;8759;-64
2021/12/31 02:24:27;;;;;;;;;90.25;80.50;10.60;74.40;;;;;;5014293;28;8907;-63
2021/12/31 02:26:53;;;;;;;;;87.25;78.25;10.00;79.10;;;;;;5014240;28;8770;-63
2021/12/31 02:29:21;;;;;;;;;83.00;73.75;10.10;79.10;;;;;;5013987;28;8785;-64
2021/12/31 02:31:47;;;;;;;;;79.75;68.00;10.30;77.20;;;;;;5014230;28;8770;-64
2021/12/31 02:34:13;;;;;;;;;88.00;76.25;10.30;76.90;;;;;;5013821;28;8784;-64
2021/12/31 02:36:39;;;;;;;;;92.50;80.25;10.30;76.20;;;;;;5013914;28;8779;-63
2021/12/31 02:39:05;;;;;;;;;87.00;76.50;10.20;77.20;;;;;;5013865;28;8750;-63
2021/12/31 02:41:31;;;;;;;;;90.50;82.75;10.40;76.30;;;;;;5016397;28;8785;-64
2021/12/31 02:43:56;;;;;;;;;91.00;80.75;10.30;76.10;;;;;;5017334;28;9410;-64
2021/12/31 02:46:22;;;;;;;;;90.25;86.75;10.20;76.80;;;;;;5017306;28;8842;-64
2021/12/31 02:48:56;;;;;;;;;100.75;91.25;10.10;76.90;;;;;;5017547;28;8770;-64
2021/12/31 02:51:23;;;;;;;;;97.75;92.75;10.30;76.40;;;;;;5017210;28;8766;-64
2021/12/31 02:53:53;;;;;;;;;93.00;90.75;10.40;75.40;;;;;;5017364;28;8884;-64
2021/12/31 02:56:19;;;;;;;;;91.75;86.25;10.40;75.10;;;;;;5017319;28;8806;-63
2021/12/31 02:58:45;;;;;;;;;90.00;76.50;10.40;75.20;;;;;;5017406;28;8766;-63
2021/12/31 03:01:15;;;;;;;;;89.75;83.00;10.40;74.60;;;;;;5017286;28;8776;-65
2021/12/31 03:03:41;;;;;;;;;88.25;78.25;10.30;75.20;;;;;;5016965;28;8790;-64
2021/12/31 03:06:09;;;;;;;;;84.00;71.00;10.40;74.60;;;;;;5016969;28;8769;-64
2021/12/31 03:08:43;;;;;;;;;92.75;84.50;10.30;75.00;;;;;;5017012;28;8754;-64
2021/12/31 03:11:09;;;;;;;;;94.00;86.75;10.10;76.70;;;;;;5017268;28;8770;-64
2021/12/31 03:13:38;;;;;;;;;94.00;90.00;10.00;77.00;;;;;;5016932;28;8769;-64
2021/12/31 03:16:06;;;;;;;;;91.75;78.00;9.80;79.00;;;;;;5016939;28;9423;-65
2021/12/31 03:18:33;;;;;;;;;92.50;82.00;9.90;79.00;;;;;;5015502;28;8812;-64
2021/12/31 03:21:10;;;;;;;;;87.50;81.00;10.10;77.70;;;;;;5016715;28;8762;-65
2021/12/31 03:23:36;;;;;;;;;119.25;109.25;9.70;79.10;;;;;;5017000;28;8754;-64
2021/12/31 03:26:02;;;;;;;;;129.00;125.00;9.70;80.30;;;;;;5016595;28;8847;-65
2021/12/31 03:28:28;;;;;;;;;111.00;109.25;9.90;79.00;;;;;;5016715;28;8774;-63
2021/12/31 03:30:54;;;;;;;;;108.50;105.25;10.20;76.60;;;;;;5016776;28;8797;-62
2021/12/31 03:33:21;;;;;;;;;117.50;109.75;10.20;77.00;;;;;;5016725;28;9447;-63
2021/12/31 03:35:47;;;;;;;;;108.00;104.00;9.90;78.30;;;;;;5016360;28;8829;-64
2021/12/31 03:38:13;;;;;;;;;92.00;85.50;9.80;78.70;;;;;;5016573;28;8754;-66
2021/12/31 03:40:39;;;;;;;;;91.50;88.25;9.60;80.30;;;;;;5016384;28;8754;-64
2021/12/31 03:43:07;;;;;;;;;94.00;91.50;10.10;78.00;;;;;;5016091;28;8778;-65
2021/12/31 03:45:33;;;;;;;;;89.50;79.50;10.20;76.30;;;;;;5016359;28;8792;-64
2021/12/31 03:47:58;;;;;;;;;92.00;87.75;10.20;76.00;;;;;;5016488;28;8798;-64
2021/12/31 03:50:24;;;;;;;;;101.25;97.25;9.90;77.50;;;;;;5016103;28;8766;-64
2021/12/31 03:52:50;;;;;;;;;94.75;91.00;9.70;80.10;;;;;;5015820;28;8809;-63
2021/12/31 03:55:16;;;;;;;;;99.25;95.00;9.80;80.10;;;;;;5016021;28;8924;-66
2021/12/31 03:57:42;;;;;;;;;95.75;90.25;9.60;80.80;;;;;;5015901;28;8863;-64
2021/12/31 04:00:10;;;;;;;;;90.00;81.50;9.60;81.60;;;;;;5015930;28;8770;-65
2021/12/31 04:02:36;;;;;;;;;93.50;86.00;9.50;82.70;;;;;;5015832;28;8780;-63
2021/12/31 04:05:03;;;;;;;;;100.00;86.50;9.50;82.60;;;;;;5015907;28;8750;-64
2021/12/31 04:07:29;;;;;;;;;101.75;99.75;9.40;83.70;;;;;;5015760;28;8750;-65
2021/12/31 04:09:54;;;;;;;;;88.50;78.25;9.40;82.80;;;;;;5015738;28;8762;-64
2021/12/31 04:12:20;;;;;;;;;105.50;102.00;9.40;82.60;;;;;;5015728;28;8782;-63
2021/12/31 04:14:46;;;;;;;;;104.25;102.50;9.60;80.90;;;;;;5015571;28;8802;-64
2021/12/31 04:17:12;;;;;;;;;113.25;112.25;9.30;83.10;;;;;;5015654;28;8806;-65
2021/12/31 04:19:38;;;;;;;;;115.25;110.75;9.40;83.50;;;;;;5015602;28;8809;-63
2021/12/31 04:22:07;;;;;;;;;114.50;108.25;9.10;85.40;;;;;;5015485;28;8782;-65
2021/12/31 04:27:11;;;;;;;;;143.50;139.75;9.60;82.50;;;;;;5015599;28;8775;-64
2021/12/31 04:29:37;;;;;;;;;150.00;139.00;10.00;79.10;;;;;;5015385;28;8762;-63
2021/12/31 04:32:04;;;;;;;;;138.50;131.75;10.00;78.90;;;;;;5015427;28;8766;-63
2021/12/31 04:34:30;;;;;;;;;145.75;139.25;10.00;78.30;;;;;;5015310;28;8778;-63
2021/12/31 04:36:56;;;;;;;;;130.50;120.75;9.70;79.70;;;;;;5014972;28;8758;-63
2021/12/31 04:39:22;;;;;;;;;146.75;136.75;9.80;80.00;;;;;;5014185;28;8786;-64
2021/12/31 04:41:48;;;;;;;;;145.00;142.25;10.00;78.50;;;;;;5014787;28;8782;-64
2021/12/31 04:44:14;;;;;;;;;138.50;130.50;9.80;79.70;;;;;;5015225;28;8878;-64
2021/12/31 04:46:39;;;;;;;;;147.75;144.75;9.80;79.40;;;;;;5015347;28;8840;-64
2021/12/31 04:49:08;;;;;;;;;151.75;142.25;9.80;79.50;;;;;;5014860;28;8742;-65
2021/12/31 04:51:34;;;;;;;;;131.50;125.75;9.90;78.60;;;;;;5014971;28;8786;-66
2021/12/31 04:54:00;;;;;;;;;143.00;134.75;9.80;79.60;;;;;;5014872;28;8754;-64
2021/12/31 04:56:26;;;;;;;;;140.50;136.00;10.00;78.00;;;;;;5014700;28;8824;-63
2021/12/31 04:58:52;;;;;;;;;142.00;138.25;9.80;79.00;;;;;;5014947;28;8772;-64
2021/12/31 05:01:21;;;;;;;;;148.00;142.50;9.70;80.10;;;;;;5014854;28;8774;-65
2021/12/31 05:03:47;;;;;;;;;156.00;150.00;9.50;81.80;;;;;;5014506;28;8789;-63
2021/12/31 05:06:13;;;;;;;;;158.00;153.00;9.40;83.10;;;;;;5014710;28;8782;-64
2021/12/31 05:08:39;;;;;;;;;168.75;159.00;9.50;83.00;;;;;;5014890;28;8770;-65
2021/12/31 05:11:05;;;;;;;;;154.75;145.50;9.80;81.30;;;;;;5014660;28;8758;-65
2021/12/31 05:13:30;;;;;;;;;170.75;161.25;9.30;84.50;;;;;;5014791;28;8898;-65
2021/12/31 05:16:01;;;;;;;;;188.50;179.75;9.20;85.60;;;;;;5014340;28;8821;-65
2021/12/31 05:18:27;;;;;;;;;208.25;186.75;8.60;90.90;;;;;;5014419;28;8818;-65
2021/12/31 05:20:53;;;;;;;;;197.00;195.00;8.50;92.00;;;;;;5014627;28;8835;-64
2021/12/31 05:23:19;;;;;;;;;208.00;198.25;8.50;91.80;;;;;;5014845;28;8770;-64
2021/12/31 05:25:45;;;;;;;;;205.25;195.00;8.70;90.50;;;;;;5013972;28;8790;-64
2021/12/31 05:28:11;;;;;;;;;207.50;197.75;9.10;88.80;;;;;;5014513;28;8782;-64
2021/12/31 05:30:37;;;;;;;;;215.25;202.50;9.40;84.90;;;;;;5014442;28;8897;-65
2021/12/31 05:33:03;;;;;;;;;200.00;190.75;9.50;83.40;;;;;;5014194;28;8797;-64
2021/12/31 05:35:28;;;;;;;;;185.75;181.50;9.50;83.20;;;;;;5014618;28;8801;-64
2021/12/31 05:37:54;;;;;;;;;193.50;180.75;9.60;82.00;;;;;;5014450;28;9642;-65
2021/12/31 05:40:20;;;;;;;;;215.75;193.75;10.00;79.60;;;;;;5013636;28;8808;-64
2021/12/31 05:42:46;;;;;;;;;200.25;190.75;10.20;76.90;;;;;;5014267;28;8793;-63
2021/12/31 05:45:12;;;;;;;;;179.50;172.75;10.30;75.50;;;;;;5014260;28;8770;-65
2021/12/31 05:47:38;;;;;;;;;185.75;171.25;10.40;75.00;;;;;;5014570;28;8924;-65
2021/12/31 05:50:07;;;;;;;;;177.50;156.00;10.60;74.20;;;;;;5014278;28;8759;-67
2021/12/31 05:52:34;;;;;;;;;173.00;158.50;10.50;74.10;;;;;;5014356;28;8754;-63
2021/12/31 05:54:59;;;;;;;;;173.00;164.75;10.50;74.50;;;;;;5014484;28;8817;-64
2021/12/31 05:57:25;;;;;;;;;201.75;194.50;10.40;74.20;;;;;;5014622;28;8761;-65
2021/12/31 05:59:51;;;;;;;;;214.25;205.75;10.10;76.50;;;;;;5014256;28;8766;-64
2021/12/31 06:02:17;;;;;;;;;219.25;211.50;10.10;76.90;;;;;;5014477;28;8847;-64
2021/12/31 06:04:43;;;;;;;;;230.50;217.75;10.20;76.60;;;;;;5014147;28;8770;-64
2021/12/31 06:07:09;;;;;;;;;201.50;195.25;10.40;76.00;;;;;;5014161;28;8793;-64
2021/12/31 06:09:35;;;;;;;;;192.75;180.75;10.10;77.10;;;;;;5014167;28;8781;-64
2021/12/31 06:12:02;;;;;;;;;185.00;176.50;9.90;79.00;;;;;;5014161;28;8790;-65
2021/12/31 06:14:29;;;;;;;;;188.25;178.00;9.70;80.20;;;;;;5015158;28;8761;-64
2021/12/31 06:17:02;;;;;;;;;177.25;165.00;9.50;81.90;;;;;;5017955;28;8801;-64
2021/12/31 06:19:27;;;;;;;;;167.75;158.00;9.70;80.70;;;;;;5016937;28;9456;-64
2021/12/31 06:21:53;;;;;;;;;154.00;148.25;10.00;79.10;;;;;;5017827;28;8766;-65
2021/12/31 06:24:19;;;;;;;;;161.75;161.00;10.10;78.00;;;;;;5015963;28;8762;-64
2021/12/31 06:26:45;;;;;;;;;177.75;167.50;10.00;77.90;;;;;;5017737;28;8781;-64
2021/12/31 06:29:10;;;;;;;;;135.25;134.25;10.10;77.70;;;;;;5017708;28;8770;-64
2021/12/31 06:31:36;;;;;;;;;129.50;124.75;10.30;76.60;;;;;;5017949;28;8774;-63
2021/12/31 06:34:02;;;;;;;;;123.25;123.25;10.60;75.00;;;;;;5017623;28;9465;-64
2021/12/31 06:36:28;;;;;;;;;126.50;121.75;10.50;75.50;;;;;;5017553;28;8820;-63
2021/12/31 06:38:57;;;;;;;;;137.00;133.75;10.30;75.90;;;;;;5017510;28;8780;-63
2021/12/31 06:41:22;;;;;;;;;123.25;120.50;10.20;77.80;;;;;;5016901;28;8786;-63
2021/12/31 06:43:48;;;;;;;;;104.00;101.75;10.30;77.00;;;;;;5017562;28;9579;-63
2021/12/31 06:46:14;;;;;;;;;110.50;107.50;10.70;75.30;;;;;;5017145;28;8792;-64
2021/12/31 06:48:40;;;;;;;;;124.00;117.25;10.80;74.00;;;;;;5017581;28;8790;-63
2021/12/31 06:51:06;;;;;;;;;129.25;119.75;10.90;73.80;;;;;;5017204;28;8766;-64
2021/12/31 06:53:32;;;;;;;;;129.00;115.50;11.00;73.20;;;;;;5017497;28;8761;-66
2021/12/31 06:55:57;;;;;;;;;131.50;117.25;10.80;73.60;;;;;;5017206;28;9537;-63
2021/12/31 06:58:23;;;;;;;;;121.25;115.00;10.70;74.40;;;;;;5017461;28;8765;-64
2021/12/31 07:00:49;;;;;;;;;128.75;124.75;10.70;74.20;;;;;;5017337;28;8778;-64
2021/12/31 07:03:15;;;;;;;;;168.00;156.75;10.60;74.80;;;;;;5017107;28;9408;-64
2021/12/31 07:05:42;;;;;;;;;168.00;157.75;10.60;75.10;;;;;;5017210;28;9484;-64
2021/12/31 07:08:08;;;;;;;;;221.25;207.50;10.20;77.80;;;;;;5017243;28;8766;-65
2021/12/31 07:10:34;;;;;;;;;238.00;230.25;10.20;77.70;;;;;;5017155;28;8766;-64
2021/12/31 07:13:02;;;;;;;;;307.25;273.50;10.10;79.10;;;;;;5016796;28;8777;-63
2021/12/31 07:15:28;;;;;;;;;330.75;286.75;10.30;78.10;;;;;;5016769;28;8825;-63
2021/12/31 07:17:54;;;;;;;;;339.00;309.75;10.40;77.50;;;;;;5016712;28;8818;-64
2021/12/31 07:20:20;;;;;;;;;327.25;303.25;10.60;76.50;;;;;;5016559;28;8778;-63
2021/12/31 07:22:46;;;;;;;;;341.75;309.25;10.80;74.90;;;;;;5016880;28;9424;-65
2021/12/31 07:25:12;;;;;;;;;337.00;303.25;11.00;73.60;;;;;;5016527;28;8777;-64
2021/12/31 07:27:38;;;;;;;;;340.75;304.00;11.00;73.40;;;;;;5016267;28;8817;-64
2021/12/31 07:30:05;;;;;;;;;346.50;309.75;10.60;75.60;;;;;;5015894;28;8778;-65
2021/12/31 07:32:37;;;;;;;;;333.75;298.75;10.90;75.10;;;;;;5012638;28;8790;-65
2021/12/31 07:35:05;;;;;;;;;314.00;281.00;11.10;73.90;;;;;;5015269;28;8804;-65
2021/12/31 07:37:31;;;;;;;;;395.50;347.25;11.00;74.40;;;;;;5015111;28;8762;-64
2021/12/31 07:40:03;;;;;;;;;364.25;330.50;10.50;77.20;;;;;;5012725;28;8813;-65
2021/12/31 07:42:29;;;;;;;;;390.00;339.50;10.40;78.00;;;;;;5015374;28;9467;-64
2021/12/31 07:44:54;;;;;;;;;379.67;349.67;10.80;76.30;;;;;;5015169;28;8774;-63
2021/12/31 07:47:20;;;;;;;;;379.25;347.50;10.60;76.90;;;;;;5015022;28;8829;-65
2021/12/31 07:49:46;;;;;;;;;393.00;366.25;10.20;80.50;;;;;;5014149;28;8843;-65
2021/12/31 07:52:12;;;;;;;;;391.50;357.50;9.90;82.40;;;;;;5014245;28;8781;-65
2021/12/31 07:54:38;;;;;;;;;373.75;340.00;9.90;83.60;;;;;;5013805;28;8738;-66
2021/12/31 07:57:04;;;;;;;;;398.50;357.25;10.30;80.40;;;;;;5014047;28;8766;-65
2021/12/31 07:59:30;;;;;;;;;403.25;375.50;10.50;79.30;;;;;;5014037;28;8774;-67
2021/12/31 08:01:56;;;;;;;;;383.25;350.00;10.60;78.10;;;;;;5014129;28;8751;-65
2021/12/31 08:04:22;;;;;;;;;343.75;314.00;10.90;76.60;;;;;;5013844;28;8765;-64
2021/12/31 08:06:48;;;;;;;;;317.25;283.25;11.10;74.70;;;;;;5013958;28;8777;-66
2021/12/31 08:09:13;;;;;;;;;310.25;282.00;11.30;74.30;;;;;;5013435;28;8860;-65
2021/12/31 08:11:41;;;;;;;;;304.50;276.00;11.20;75.00;;;;;;5012905;28;8767;-64
2021/12/31 08:14:06;;;;;;;;;285.50;263.50;11.40;74.40;;;;;;5013773;28;8770;-66
2021/12/31 08:16:32;;;;;;;;;286.25;260.75;11.50;72.70;;;;;;5014401;28;8842;-67
2021/12/31 08:18:58;;;;;;;;;304.25;280.75;11.70;71.60;;;;;;5013329;28;8793;-65
2021/12/31 08:21:24;;;;;;;;;279.75;257.00;11.30;72.30;;;;;;4996925;28;8789;-66
2021/12/31 08:23:49;;;;;;;;;277.50;260.25;11.10;73.90;;;;;;5014013;28;8758;-67
2021/12/31 08:26:15;;;;;;;;;310.75;282.75;11.10;76.00;;;;;;5012482;28;9443;-64
2021/12/31 08:28:41;;;;;;;;;371.50;338.50;11.30;74.40;;;;;;5012829;28;9528;-65
2021/12/31 08:31:07;;;;;;;;;358.67;325.67;11.20;74.80;;;;;;5013628;28;8901;-66
2021/12/31 08:33:33;;;;;;;;;382.75;349.00;11.60;73.90;;;;;;5013381;28;8766;-64
2021/12/31 08:35:59;;;;;;;;;375.50;336.50;11.70;73.10;;;;;;5014280;28;8828;-67
2021/12/31 08:38:25;;;;;;;;;337.50;311.25;11.90;72.20;;;;;;5012065;28;8777;-66
2021/12/31 08:40:54;;;;;;;;;361.75;333.75;12.20;70.70;;;;;;5013511;28;8790;-65
2021/12/31 08:43:20;;;;;;;;;367.75;335.25;12.10;70.90;;;;;;5013858;28;8747;-66
2021/12/31 08:45:46;;;;;;;;;312.50;290.75;12.10;71.20;;;;;;5013903;28;8836;-66
2021/12/31 08:48:12;;;;;;;;;311.75;284.75;12.10;71.20;;;;;;5013735;28;8786;-67
2021/12/31 08:50:38;;;;;;;;;302.50;276.25;11.90;71.70;;;;;;5013793;28;8762;-71
2021/12/31 08:53:05;;;;;;;;;280.50;255.50;12.20;71.10;;;;;;5014297;28;8758;-70
2021/12/31 08:55:30;;;;;;;;;273.50;254.75;12.30;69.70;;;;;;5014446;28;8829;-72
2021/12/31 08:57:56;;;;;;;;;238.00;213.00;12.50;69.00;;;;;;5015083;28;8786;-71
2021/12/31 09:00:22;;;;;;;;;226.00;210.50;12.70;68.20;;;;;;5014863;28;8782;-67
2021/12/31 09:02:50;;;;;;;;;215.25;197.25;12.80;67.60;;;;;;5012934;28;8784;-66
2021/12/31 09:05:17;;;;;;;;;234.50;214.50;12.90;67.40;;;;;;5013095;28;8774;-66
2021/12/31 09:07:43;;;;;;;;;226.50;209.75;12.80;67.40;;;;;;5013577;28;8865;-65
2021/12/31 09:10:09;;;;;;;;;240.00;215.50;12.80;67.80;;;;;;5013593;28;8936;-67
2021/12/31 09:12:36;;;;;;;;;219.50;197.50;12.50;69.10;;;;;;5011009;28;8763;-66
2021/12/31 09:15:03;;;;;;;;;236.50;218.50;12.40;70.00;;;;;;5013356;28;8876;-66
2021/12/31 09:17:29;;;;;;;;;249.00;231.00;12.50;69.50;;;;;;5014494;28;8786;-65
2021/12/31 09:19:55;;;;;;;;;254.50;230.00;12.60;70.80;;;;;;5014737;28;8854;-67
2021/12/31 09:22:20;;;;;;;;;253.25;229.00;12.60;70.00;;;;;;5014385;28;8812;-65
2021/12/31 09:24:48;;;;;;;;;223.25;208.00;12.50;70.50;;;;;;5014750;28;8812;-64
2021/12/31 09:27:14;;;;;;;;;158.75;142.25;12.30;72.60;;;;;;5014660;28;8772;-66
2021/12/31 09:29:40;;;;;;;;;136.25;124.50;12.20;72.10;;;;;;5008614;28;8778;-66
2021/12/31 09:32:06;;;;;;;;;136.50;123.75;12.50;70.40;;;;;;4994748;28;8905;-67
2021/12/31 09:34:33;;;;;;;;;130.25;121.75;12.60;70.10;;;;;;4994643;28;8788;-66
2021/12/31 09:36:59;;;;;;;;;114.00;106.00;12.50;70.20;;;;;;4994804;28;8777;-65
2021/12/31 09:39:25;;;;;;;;;116.50;111.25;12.60;70.40;;;;;;4994566;28;8833;-66
2021/12/31 09:41:50;;;;;;;;;97.75;92.50;12.70;69.00;;;;;;5004747;28;8802;-67
2021/12/31 09:44:20;;;;;;;;;111.00;106.00;12.50;68.90;;;;;;5014118;28;8806;-68
2021/12/31 09:46:46;;;;;;;;;105.75;99.00;12.00;72.10;;;;;;5014189;28;8819;-66
2021/12/31 09:49:12;;;;;;;;;102.00;96.50;12.10;71.70;;;;;;5014865;28;8817;-64
2021/12/31 09:51:42;;;;;;;;;102.25;93.00;11.70;73.40;;;;;;5018238;28;8765;-65
2021/12/31 09:54:10;;;;;;;;;107.25;98.25;12.10;72.40;;;;;;5018379;28;9443;-64
2021/12/31 09:56:39;;;;;;;;;109.50;105.00;12.40;70.60;;;;;;5018292;28;8794;-66
2021/12/31 09:59:06;;;;;;;;;83.75;74.00;12.30;70.90;;;;;;5018070;28;8782;-63
2021/12/31 10:01:31;;;;;;;;;88.75;76.75;12.40;71.00;;;;;;5017998;28;8794;-64
2021/12/31 10:04:00;;;;;;;;;88.25;80.00;12.30;71.40;;;;;;5017840;28;8782;-64
2021/12/31 10:06:26;;;;;;;;;83.75;69.25;12.50;70.40;;;;;;5018228;28;8884;-65
2021/12/31 10:08:57;;;;;;;;;85.75;75.00;12.20;71.20;;;;;;5018154;28;8758;-64
2021/12/31 10:11:24;;;;;;;;;86.75;78.50;11.90;74.00;;;;;;5017666;28;8795;-64
2021/12/31 10:13:57;;;;;;;;;101.50;93.50;12.20;72.60;;;;;;5017704;28;8894;-64
2021/12/31 10:16:37;;;;;;;;;93.50;87.50;12.30;72.50;;;;;;5015438;28;8860;-64
2021/12/31 10:19:09;;;;;;;;;87.75;82.75;12.60;70.60;;;;;;5015751;28;8814;-64
2021/12/31 10:21:56;;;;;;;;;99.00;92.00;12.20;72.30;;;;;;5017725;28;8774;-64
2021/12/31 10:24:38;;;;;;;;;91.25;85.75;11.80;75.10;;;;;;5010575;28;8777;-63
2021/12/31 10:27:12;;;;;;;;;95.00;87.50;12.20;74.00;;;;;;5017630;28;8766;-64
2021/12/31 10:29:53;;;;;;;;;96.50;88.25;12.60;71.40;;;;;;5017639;28;8754;-63
2021/12/31 10:32:24;;;;;;;;;95.25;89.00;13.20;68.50;;;;;;5016226;28;8774;-63
2021/12/31 10:34:50;;;;;;;;;95.00;87.25;13.50;66.80;;;;;;5016441;28;8786;-64
2021/12/31 10:37:19;;;;;;;;;90.75;86.00;13.70;66.40;;;;;;4997697;28;8779;-64
2021/12/31 10:39:54;;;;;;;;;108.50;101.75;13.70;66.30;;;;;;5013091;28;8841;-63
2021/12/31 10:42:20;;;;;;;;;103.00;97.00;13.40;67.00;;;;;;5017366;28;8783;-63
2021/12/31 10:44:52;;;;;;;;;85.25;79.50;13.40;67.40;;;;;;5017483;28;8757;-64
2021/12/31 10:47:33;;;;;;;;;96.75;91.75;13.40;68.00;;;;;;5017099;28;8806;-65
2021/12/31 10:50:12;;;;;;;;;87.75;75.50;13.60;67.00;;;;;;5017132;28;8774;-65
2021/12/31 10:53:00;;;;;;;;;86.75;80.00;13.30;67.50;;;;;;5017083;28;8762;-65
2021/12/31 10:55:30;;;;;;;;;76.00;62.00;12.90;69.80;;;;;;5017127;28;8811;-66
2021/12/31 10:58:03;;;;;;;;;86.25;74.25;12.90;70.70;;;;;;5016903;28;8754;-65
2021/12/31 11:00:35;;;;;;;;;87.50;78.75;12.50;73.20;;;;;;5016768;28;8774;-64
2021/12/31 11:03:01;;;;;;;;;121.25;117.50;12.90;71.40;;;;;;5016454;28;8805;-64
2021/12/31 11:05:28;;;;;;;;;137.00;131.25;13.40;69.10;;;;;;5016841;28;8790;-64
2021/12/31 11:07:59;;;;;;;;;145.00;135.50;14.00;66.80;;;;;;5016834;28;8797;-64
2021/12/31 11:10:27;;;;;;;;;128.25;119.00;13.90;66.50;;;;;;5017101;28;8839;-64
2021/12/31 11:12:54;;;;;;;;;125.75;116.00;13.80;66.50;;;;;;5016663;28;9579;-64
2021/12/31 11:15:21;;;;;;;;;126.75;118.00;13.90;66.70;;;;;;5016675;28;8793;-64
2021/12/31 11:17:52;;;;;;;;;131.50;122.75;13.90;66.70;;;;;;5016642;28;8864;-66
2021/12/31 11:20:21;;;;;;;;;143.00;133.25;13.80;67.10;;;;;;5016978;28;8789;-64
2021/12/31 11:22:47;;;;;;;;;155.25;142.00;14.30;65.70;;;;;;5016383;28;8897;-63
2021/12/31 11:25:27;;;;;;;;;161.25;151.75;14.40;65.30;;;;;;5016858;28;8865;-64
2021/12/31 11:27:56;;;;;;;;;158.00;144.75;14.50;64.50;;;;;;5016520;28;8758;-63
2021/12/31 11:30:39;;;;;;;;;164.75;154.25;14.60;63.90;;;;;;5015945;28;8786;-65
2021/12/31 11:33:08;;;;;;;;;172.00;161.25;14.80;63.10;;;;;;5013841;28;10178;-65
2021/12/31 11:35:56;;;;;;;;;170.00;159.50;13.90;66.50;;;;;;5014105;28;8812;-64
2021/12/31 11:38:21;;;;;;;;;182.25;170.00;14.00;65.90;;;;;;5012771;28;8782;-66
2021/12/31 11:40:52;;;;;;;;;175.50;160.75;13.90;67.30;;;;;;5015571;28;8793;-64
2021/12/31 11:43:25;;;;;;;;;160.00;152.25;14.20;66.50;;;;;;5016099;28;8771;-64
2021/12/31 11:46:32;;;;;;;;;157.75;152.75;14.70;64.80;;;;;;5016296;28;8805;-64
2021/12/31 11:48:59;;;;;;;;;127.50;121.75;14.90;63.70;;;;;;5010469;28;8779;-64
2021/12/31 11:51:28;;;;;;;;;117.25;112.25;14.40;64.60;;;;;;5015799;28;8775;-66
2021/12/31 11:53:57;;;;;;;;;120.25;106.00;14.30;64.90;;;;;;5015587;28;8794;-61
2021/12/31 11:56:45;;;;;;;;;93.00;85.25;14.50;64.10;;;;;;5015735;28;8853;-60
2021/12/31 11:59:13;;;;;;;;;97.25;96.50;14.30;63.80;;;;;;5015870;28;8829;-65
2021/12/31 12:01:48;;;;;;;;;124.50;118.75;14.60;63.10;;;;;;5015648;28;8783;-65
2021/12/31 12:04:28;;;;;;;;;174.00;156.25;14.80;62.20;;;;;;5015693;28;8775;-64
2021/12/31 12:07:09;;;;;;;;;193.00;174.25;14.60;64.50;;;;;;5015828;28;8864;-72
2021/12/31 12:09:38;;;;;;;;;182.25;165.75;14.30;66.90;;;;;;5015694;28;8788;-65
2021/12/31 12:12:17;;;;;;;;;167.00;154.25;14.30;67.40;;;;;;5015131;28;8768;-65
2021/12/31 12:14:48;;;;;;;;;170.00;155.00;14.10;68.70;;;;;;5015483;28;8763;-65
2021/12/31 12:17:40;;;;;;;;;163.00;158.25;13.50;71.10;;;;;;5015560;28;8811;-65
2021/12/31 12:20:07;;;;;;;;;142.25;134.75;13.50;70.70;;;;;;4998059;28;9029;-65
2021/12/31 12:22:34;;;;;;;;;132.50;125.00;13.90;69.10;;;;;;5015247;28;8833;-64
2021/12/31 12:25:10;;;;;;;;;108.75;102.25;14.50;66.40;;;;;;5014569;28;8932;-64
2021/12/31 12:27:37;;;;;;;;;107.50;103.50;14.70;64.60;;;;;;5012729;28;8798;-65
2021/12/31 12:30:09;;;;;;;;;105.00;100.75;15.00;65.00;;;;;;5015042;28;9533;-65
2021/12/31 12:32:51;;;;;;;;;94.00;91.00;17.50;60.40;;;;;;5014835;28;8782;-60